createdAt,value
2022-12-08T07:02:35.591Z,58.79
2022-12-08T07:04:38.407Z,58.08
2022-12-08T07:06:41.290Z,57.92
2022-12-08T07:08:44.278Z,57.59
2022-12-08T07:10:46.959Z,57.48
2022-12-08T07:12:49.813Z,57.00
2022-12-08T07:14:52.552Z,56.85
2022-12-08T07:16:55.340Z,56.60
2022-12-08T07:19:00.385Z,56.47
2022-12-08T07:21:07.751Z,56.41
2022-12-08T07:23:10.448Z,56.39
2022-12-08T07:25:13.087Z,56.17
2022-12-08T07:27:15.808Z,56.05
2022-12-08T07:29:24.612Z,56.08
2022-12-08T07:31:31.332Z,55.99
2022-12-08T07:33:35.984Z,55.74
2022-12-08T07:35:41.925Z,55.62
2022-12-08T07:37:47.954Z,55.82
2022-12-08T07:39:53.492Z,55.91
2022-12-08T07:41:56.401Z,55.66
2022-12-08T07:44:00.083Z,55.49
2022-12-08T07:46:02.997Z,55.19
2022-12-08T07:48:08.443Z,55.24
2022-12-08T07:50:11.280Z,55.38
2022-12-08T07:52:15.548Z,55.48
2022-12-08T07:54:18.347Z,55.14
2022-12-08T07:56:21.100Z,55.36
2022-12-08T07:58:23.945Z,55.01
2022-12-08T08:00:26.867Z,54.99
2022-12-08T08:02:29.825Z,55.11
2022-12-08T08:04:32.796Z,54.76
2022-12-08T08:06:36.279Z,54.83
2022-12-08T08:08:40.443Z,54.53
2022-12-08T08:10:43.373Z,54.68
2022-12-08T08:12:46.033Z,54.60
2022-12-08T08:14:48.831Z,54.34
2022-12-08T08:16:51.688Z,54.35
2022-12-08T08:18:56.233Z,54.46
2022-12-08T08:21:15.878Z,54.47
2022-12-08T08:23:24.639Z,54.12
2022-12-08T08:25:28.806Z,54.35
2022-12-08T08:27:31.597Z,54.29
2022-12-08T08:29:34.377Z,54.08
2022-12-08T08:31:37.437Z,53.91
2022-12-08T08:33:40.278Z,53.87
2022-12-08T08:35:43.317Z,53.97
2022-12-08T08:37:49.204Z,53.85
2022-12-08T08:39:52.306Z,53.85
2022-12-08T08:41:56.513Z,53.70
2022-12-08T08:43:59.269Z,53.51
2022-12-08T08:46:02.351Z,53.46
2022-12-08T08:48:06.538Z,53.21
2022-12-08T08:50:09.861Z,53.20
2022-12-08T08:52:13.092Z,53.45
2022-12-08T08:54:16.150Z,53.48
2022-12-08T08:56:20.091Z,53.28
2022-12-08T08:58:24.157Z,53.17
2022-12-08T09:00:27.109Z,53.05
2022-12-08T09:02:29.823Z,53.02
2022-12-08T09:04:32.632Z,53.08
2022-12-08T09:06:35.506Z,52.89
2022-12-08T09:08:38.327Z,53.21
2022-12-08T09:10:41.275Z,53.07
2022-12-08T09:12:44.223Z,52.86
2022-12-08T09:14:48.510Z,53.09
2022-12-08T09:16:51.305Z,52.82
2022-12-08T09:18:54.337Z,52.80
2022-12-08T09:20:57.455Z,52.88
2022-12-08T09:23:00.318Z,52.66
2022-12-08T09:25:05.372Z,52.79
2022-12-08T09:27:08.278Z,52.58
2022-12-08T09:29:11.984Z,52.87
2022-12-08T09:31:17.032Z,52.63
2022-12-08T09:33:19.999Z,52.53
2022-12-08T09:35:22.821Z,52.43
2022-12-08T09:37:25.789Z,52.56
2022-12-08T09:39:28.802Z,52.52
2022-12-08T09:41:40.294Z,52.45
2022-12-08T09:43:57.922Z,52.57
2022-12-08T09:46:01.902Z,52.49
2022-12-08T09:48:13.450Z,52.38
2022-12-08T09:50:20.903Z,52.36
2022-12-08T09:52:27.710Z,52.58
2022-12-08T09:54:35.350Z,52.43
2022-12-08T09:56:38.612Z,52.57
2022-12-08T09:58:50.186Z,52.34
2022-12-08T10:00:53.548Z,52.28
2022-12-08T10:02:57.437Z,52.30
2022-12-08T10:05:01.678Z,52.03
2022-12-08T10:07:13.427Z,52.12
2022-12-08T10:09:29.677Z,52.12
2022-12-08T10:11:40.784Z,51.98
2022-12-08T10:13:53.298Z,52.18
2022-12-08T10:16:07.414Z,51.99
2022-12-08T10:18:16.463Z,51.73
2022-12-08T10:20:23.375Z,51.90
2022-12-08T10:22:28.362Z,51.68
2022-12-08T10:24:37.202Z,51.88
2022-12-08T10:26:40.797Z,51.53
2022-12-08T10:28:45.627Z,51.82
2022-12-08T10:30:48.838Z,51.57
2022-12-08T10:32:54.421Z,51.78
2022-12-08T10:35:03.316Z,51.67
2022-12-08T10:37:10.899Z,51.77
2022-12-08T10:39:45.536Z,51.75
2022-12-08T10:41:48.306Z,51.76
2022-12-08T10:43:56.339Z,51.68
2022-12-08T10:46:10.795Z,51.61
2022-12-08T10:48:19.758Z,51.47
2022-12-08T10:50:28.827Z,51.35
2022-12-08T10:52:33.299Z,51.23
2022-12-08T10:54:38.218Z,51.34
2022-12-08T10:56:54.026Z,51.72
2022-12-08T10:59:11.265Z,51.67
2022-12-08T11:01:20.827Z,51.38
2022-12-08T11:03:28.517Z,51.30
2022-12-08T11:05:34.612Z,51.26
2022-12-08T11:07:39.858Z,51.46
2022-12-08T11:09:48.811Z,51.51
2022-12-08T11:11:53.174Z,51.22
2022-12-08T11:13:55.944Z,51.18
2022-12-08T11:15:58.851Z,50.99
2022-12-08T11:18:08.026Z,51.17
2022-12-08T11:20:23.028Z,51.28
2022-12-08T11:22:30.932Z,51.25
2022-12-08T11:24:37.870Z,51.10
2022-12-08T11:26:42.632Z,51.15
2022-12-08T11:28:45.570Z,51.11
2022-12-08T11:30:56.004Z,51.10
2022-12-08T11:33:02.534Z,51.11
2022-12-08T11:35:08.494Z,51.00
2022-12-08T11:37:18.518Z,51.25
2022-12-08T11:39:22.916Z,51.21
2022-12-08T11:41:30.570Z,51.24
2022-12-08T11:43:45.391Z,51.34
2022-12-08T11:45:53.337Z,51.13
2022-12-08T11:48:05.717Z,51.23
2022-12-08T11:50:19.863Z,50.78
2022-12-08T11:52:29.065Z,50.96
2022-12-08T11:54:35.199Z,51.04
2022-12-08T11:56:41.382Z,51.03
2022-12-08T11:58:47.194Z,50.82
2022-12-08T12:00:50.918Z,50.85
2022-12-08T12:03:04.715Z,50.75
2022-12-08T12:05:17.421Z,50.77
2022-12-08T12:07:48.649Z,50.82
2022-12-08T12:10:17.796Z,50.90
2022-12-08T12:12:39.439Z,50.68
2022-12-08T12:14:56.964Z,50.94
2022-12-08T12:17:06.652Z,50.96
2022-12-08T12:19:15.475Z,51.04
2022-12-08T12:21:22.550Z,50.96
2022-12-08T12:23:30.681Z,50.59
2022-12-08T12:25:35.888Z,50.58
2022-12-08T12:27:41.591Z,50.77
2022-12-08T12:29:55.717Z,50.96
2022-12-08T12:32:04.278Z,50.83
2022-12-08T12:34:14.475Z,50.87
2022-12-08T12:36:18.807Z,50.65
2022-12-08T12:38:44.012Z,50.58
2022-12-08T12:40:46.980Z,50.58
2022-12-08T12:43:15.113Z,50.30
2022-12-08T12:45:31.876Z,50.72
2022-12-08T12:47:54.312Z,50.60
2022-12-08T12:50:37.410Z,50.35
2022-12-08T12:52:49.292Z,50.51
2022-12-08T12:55:30.461Z,50.65
2022-12-08T12:57:38.429Z,50.56
2022-12-08T12:59:46.184Z,50.74
2022-12-08T13:01:56.273Z,50.53
2022-12-08T13:04:06.206Z,50.47
2022-12-08T13:06:14.561Z,50.57
2022-12-08T13:08:24.337Z,50.43
2022-12-08T13:10:31.722Z,50.54
2022-12-08T13:12:34.443Z,50.50
2022-12-08T13:14:39.372Z,50.53
2022-12-08T13:16:42.563Z,50.56
2022-12-08T13:18:50.389Z,50.49
2022-12-08T13:21:05.796Z,50.39
2022-12-08T13:23:28.786Z,50.57
2022-12-08T13:25:51.117Z,50.66
2022-12-08T13:27:55.989Z,50.23
2022-12-08T13:30:43.208Z,50.20
2022-12-08T13:33:18.731Z,50.47
2022-12-08T13:35:22.321Z,50.32
2022-12-08T13:37:30.094Z,50.40
2022-12-08T13:39:45.962Z,50.63
2022-12-08T13:41:55.879Z,50.34
2022-12-08T13:45:18.091Z,50.39
2022-12-08T13:58:50.607Z,50.01
2022-12-08T14:01:02.251Z,50.42
2022-12-08T14:03:05.177Z,50.14
2022-12-08T14:05:18.199Z,50.27
2022-12-08T14:07:22.643Z,50.14
2022-12-08T14:09:28.528Z,50.16
2022-12-08T14:11:37.167Z,50.11
2022-12-08T14:13:39.965Z,50.08
2022-12-08T14:15:42.733Z,50.23
2022-12-08T14:17:53.081Z,50.39
2022-12-08T14:19:58.159Z,50.01
2022-12-08T14:22:03.868Z,50.26
2022-12-08T14:24:06.939Z,50.26
2022-12-08T14:26:13.781Z,50.13
2022-12-08T14:28:18.186Z,50.30
2022-12-08T14:30:26.053Z,50.17
2022-12-08T14:32:32.501Z,50.35
2022-12-08T14:34:41.123Z,50.16
2022-12-08T14:36:44.077Z,49.95
2022-12-08T14:38:51.530Z,50.21
2022-12-08T14:41:05.440Z,49.84
2022-12-08T14:43:18.336Z,50.05
2022-12-08T14:45:21.666Z,50.26
2022-12-08T14:47:30.418Z,50.13
2022-12-08T14:49:36.214Z,50.04
2022-12-08T14:51:41.201Z,49.90
2022-12-08T14:53:48.323Z,50.14
2022-12-08T14:55:51.600Z,50.07
2022-12-08T14:57:54.597Z,50.11
2022-12-08T14:59:58.906Z,50.20
2022-12-08T15:02:14.847Z,50.18
2022-12-08T15:04:21.150Z,50.09
2022-12-08T15:06:24.131Z,50.12
2022-12-08T15:08:26.972Z,50.20
2022-12-08T15:10:31.900Z,50.29
2022-12-08T15:12:34.810Z,50.05
2022-12-08T15:14:41.219Z,50.22
2022-12-08T15:16:45.417Z,50.35
2022-12-08T15:19:02.205Z,50.06
2022-12-08T15:21:08.960Z,50.19
2022-12-08T15:23:22.593Z,50.18
2022-12-08T15:25:26.213Z,50.17
2022-12-08T15:27:29.155Z,50.02
2022-12-08T15:29:32.212Z,50.20
2022-12-08T15:31:35.008Z,50.24
2022-12-08T15:33:39.407Z,49.97
2022-12-08T15:35:42.549Z,49.82
2022-12-08T15:37:46.344Z,49.93
2022-12-08T15:39:49.339Z,49.96
2022-12-08T15:41:52.187Z,49.88
2022-12-08T15:43:54.932Z,50.23
2022-12-08T15:45:59.868Z,49.88
2022-12-08T15:48:02.894Z,50.31
2022-12-08T15:50:20.252Z,50.08
2022-12-08T15:52:24.937Z,49.94
2022-12-08T15:54:27.899Z,50.09
2022-12-08T15:56:31.211Z,49.95
2022-12-08T15:58:53.761Z,50.14
2022-12-08T16:00:57.841Z,50.10
2022-12-08T16:03:22.928Z,49.74
2022-12-08T16:05:44.709Z,50.16
2022-12-08T16:07:57.604Z,49.79
2022-12-08T16:10:00.762Z,50.08
2022-12-08T16:12:20.928Z,49.83
2022-12-08T16:15:23.769Z,49.74
2022-12-08T16:16:46.646Z,49.70
2022-12-08T16:18:56.558Z,49.73
2022-12-08T16:23:42.333Z,49.94
2022-12-08T16:26:17.076Z,49.75
2022-12-08T16:28:52.220Z,49.83
2022-12-08T16:30:40.939Z,49.92
2022-12-08T16:32:43.866Z,49.94
2022-12-08T16:34:46.970Z,49.57
2022-12-08T16:36:52.370Z,49.59
2022-12-08T16:38:55.055Z,49.94
2022-12-08T16:41:15.309Z,49.92
2022-12-08T16:43:18.434Z,49.79
2022-12-08T16:45:23.116Z,49.73
2022-12-08T16:47:25.892Z,49.69
2022-12-08T16:49:28.797Z,49.77
2022-12-08T16:51:31.596Z,49.80
2022-12-08T16:53:40.649Z,49.54
2022-12-08T16:55:48.982Z,49.60
2022-12-08T16:57:51.773Z,49.73
2022-12-08T16:59:54.781Z,49.58
2022-12-08T17:01:57.985Z,49.87
2022-12-08T17:04:29.880Z,49.52
2022-12-08T17:06:23.767Z,49.58
2022-12-08T17:08:26.528Z,49.44
2022-12-08T17:10:34.318Z,49.54
2022-12-08T17:12:37.193Z,49.31
2022-12-08T17:14:39.924Z,49.55
2022-12-08T17:16:43.692Z,49.31
2022-12-08T17:18:46.646Z,49.46
2022-12-08T17:20:49.351Z,49.39
2022-12-08T17:22:54.595Z,49.38
2022-12-08T17:24:57.344Z,49.27
2022-12-08T17:27:04.078Z,49.65
2022-12-08T17:29:07.015Z,49.35
2022-12-08T17:31:11.673Z,49.31
2022-12-08T17:33:14.357Z,49.28
2022-12-08T17:35:17.333Z,49.38
2022-12-08T17:37:20.458Z,49.12
2022-12-08T17:39:23.191Z,49.44
2022-12-08T17:41:29.262Z,49.24
2022-12-08T17:43:33.812Z,49.07
2022-12-08T17:45:36.532Z,49.29
2022-12-08T17:47:40.411Z,49.14
2022-12-08T17:49:43.074Z,49.29
2022-12-08T17:51:47.788Z,49.25
2022-12-08T17:53:50.497Z,49.40
2022-12-08T17:55:54.432Z,49.32
2022-12-08T17:57:57.172Z,49.19
2022-12-08T18:00:01.165Z,49.16
2022-12-08T18:02:04.701Z,49.16
2022-12-08T18:04:09.819Z,49.04
2022-12-08T18:06:13.759Z,49.16
2022-12-08T18:08:17.128Z,48.99
2022-12-08T18:10:20.610Z,49.03
2022-12-08T18:12:24.180Z,49.13
2022-12-08T18:14:27.224Z,49.08
2022-12-08T18:16:31.421Z,48.85
2022-12-08T18:18:34.368Z,49.03
2022-12-08T18:20:37.426Z,48.79
2022-12-08T18:22:40.653Z,49.03
2022-12-08T18:24:43.644Z,48.88
2022-12-08T18:26:46.587Z,49.04
2022-12-08T18:28:49.535Z,49.07
2022-12-08T18:30:52.328Z,48.81
2022-12-08T18:32:57.610Z,48.62
2022-12-08T18:35:00.712Z,48.81
2022-12-08T18:37:03.443Z,48.62
2022-12-08T18:39:10.701Z,48.61
2022-12-08T18:41:15.795Z,48.81
2022-12-08T18:43:18.468Z,49.00
2022-12-08T18:45:22.651Z,48.91
2022-12-08T18:47:26.037Z,48.90
2022-12-08T18:49:30.391Z,48.54
2022-12-08T18:51:33.505Z,48.78
2022-12-08T18:53:36.343Z,48.80
2022-12-08T18:55:39.042Z,48.50
2022-12-08T18:57:43.483Z,48.76
2022-12-08T18:59:46.478Z,48.71
2022-12-08T19:01:49.287Z,48.70
2022-12-08T19:04:19.946Z,48.63
2022-12-08T19:06:16.789Z,48.80
2022-12-08T19:08:20.635Z,48.72
2022-12-08T19:10:23.471Z,49.03
2022-12-08T19:12:26.948Z,48.75
2022-12-08T19:14:30.379Z,48.68
2022-12-08T19:16:33.324Z,48.99
2022-12-08T19:18:36.144Z,48.88
2022-12-08T19:20:38.905Z,49.09
2022-12-08T19:22:43.039Z,49.09
2022-12-08T19:24:46.144Z,49.09
2022-12-08T19:26:48.880Z,49.17
2022-12-08T19:28:51.603Z,49.03
2022-12-08T19:30:55.522Z,48.90
2022-12-08T19:32:58.687Z,49.04
2022-12-08T19:35:06.843Z,49.13
2022-12-08T19:37:12.418Z,48.83
2022-12-08T19:39:36.169Z,49.12
2022-12-08T19:41:56.964Z,48.92
2022-12-08T19:44:17.546Z,48.90
2022-12-08T19:46:20.608Z,48.72
2022-12-08T19:48:23.550Z,48.94
2022-12-08T19:50:38.538Z,48.89
2022-12-08T19:52:41.474Z,48.93
2022-12-08T19:54:45.767Z,49.02
2022-12-08T19:56:48.666Z,48.95
2022-12-08T19:58:51.521Z,48.82
2022-12-08T20:00:55.624Z,48.76
2022-12-08T20:02:59.621Z,49.09
2022-12-08T20:05:02.574Z,48.74
2022-12-08T20:07:05.231Z,48.86
2022-12-08T20:09:08.262Z,48.51
2022-12-08T20:11:12.708Z,48.42
2022-12-08T20:13:33.213Z,48.61
2022-12-08T20:15:36.246Z,48.53
2022-12-08T20:17:39.261Z,48.61
2022-12-08T20:19:44.046Z,48.52
2022-12-08T20:21:47.756Z,48.55
2022-12-08T20:23:50.552Z,48.31
2022-12-08T20:25:53.615Z,48.46
2022-12-08T20:27:57.674Z,48.41
2022-12-08T20:30:00.430Z,48.21
2022-12-08T20:32:03.217Z,48.23
2022-12-08T20:34:06.180Z,48.25
2022-12-08T20:36:14.435Z,48.41
2022-12-08T20:38:17.175Z,48.12
2022-12-08T20:40:20.847Z,48.26
2022-12-08T20:42:24.063Z,48.38
2022-12-08T20:44:31.038Z,48.15
2022-12-08T20:46:34.389Z,48.26
2022-12-08T20:48:37.332Z,48.13
2022-12-08T20:50:40.195Z,48.12
2022-12-08T20:52:43.081Z,48.25
2022-12-08T20:54:45.854Z,48.07
2022-12-08T20:56:48.819Z,48.16
2022-12-08T20:58:52.566Z,47.86
2022-12-08T21:00:58.747Z,47.97
2022-12-08T21:03:03.912Z,48.01
2022-12-08T21:05:08.925Z,48.26
2022-12-08T21:07:12.431Z,48.12
2022-12-08T21:09:16.735Z,48.28
2022-12-08T21:11:19.566Z,48.14
2022-12-08T21:13:22.763Z,47.93
2022-12-08T21:15:25.602Z,47.92
2022-12-08T21:17:30.024Z,48.16
2022-12-08T21:19:33.215Z,48.16
2022-12-08T21:21:36.568Z,48.17
2022-12-08T21:23:41.768Z,48.22
2022-12-08T21:25:47.237Z,48.40
2022-12-08T21:27:49.940Z,48.62
2022-12-08T21:29:52.675Z,48.75
2022-12-08T21:31:58.659Z,48.36
2022-12-08T21:34:04.197Z,48.79
